sensor_id;sensor_type;location;lat;lon;timestamp;P1;durP1;ratioP1;P2;durP2;ratioP2
69736;SDS011;64476;55.004;73.342;2023-03-23T03:38:07;34.42;;;11.63;;
69736;SDS011;64476;55.004;73.342;2023-03-23T03:41:11;25.93;;;8.13;;
69736;SDS011;64476;55.004;73.342;2023-03-23T03:44:12;20.30;;;8.77;;
69736;SDS011;64476;55.004;73.342;2023-03-23T03:47:29;11.52;;;7.25;;
69736;SDS011;64476;55.004;73.342;2023-03-23T03:50:30;11.90;;;5.93;;
69736;SDS011;64476;55.004;73.342;2023-03-23T03:53:33;15.30;;;6.68;;
69736;SDS011;64476;55.004;73.342;2023-03-23T03:56:35;17.17;;;6.95;;
69736;SDS011;64476;55.004;73.342;2023-03-23T04:00:31;15.88;;;7.55;;
69736;SDS011;64476;55.004;73.342;2023-03-23T04:03:33;11.95;;;6.22;;
69736;SDS011;64476;55.004;73.342;2023-03-23T04:11:29;19.30;;;4.65;;
69736;SDS011;64476;55.004;73.342;2023-03-23T04:19:25;8.77;;;5.00;;
69736;SDS011;64476;55.004;73.342;2023-03-23T04:22:30;15.57;;;3.90;;
69736;SDS011;64476;55.004;73.342;2023-03-23T04:39:07;9.32;;;3.72;;
69736;SDS011;64476;55.004;73.342;2023-03-23T04:46:27;8.05;;;4.05;;
69736;SDS011;64476;55.004;73.342;2023-03-23T04:53:45;7.35;;;4.43;;
69736;SDS011;64476;55.004;73.342;2023-03-23T04:56:52;11.73;;;4.43;;
69736;SDS011;64476;55.004;73.342;2023-03-23T04:59:54;15.20;;;4.43;;
69736;SDS011;64476;55.004;73.342;2023-03-23T05:08:00;8.32;;;4.60;;
69736;SDS011;64476;55.004;73.342;2023-03-23T05:11:09;8.48;;;5.18;;
69736;SDS011;64476;55.004;73.342;2023-03-23T05:14:14;6.57;;;5.47;;
69736;SDS011;64476;55.004;73.342;2023-03-23T05:17:21;21.35;;;7.85;;
69736;SDS011;64476;55.004;73.342;2023-03-23T05:27:53;5.93;;;4.88;;
69736;SDS011;64476;55.004;73.342;2023-03-23T05:31:03;6.88;;;5.07;;
69736;SDS011;64476;55.004;73.342;2023-03-23T05:34:07;6.72;;;5.35;;
69736;SDS011;64476;55.004;73.342;2023-03-23T05:37:20;6.60;;;5.14;;
69736;SDS011;64476;55.004;73.342;2023-03-23T05:40:58;8.23;;;5.85;;
69736;SDS011;64476;55.004;73.342;2023-03-23T05:44:08;11.98;;;5.97;;
69736;SDS011;64476;55.004;73.342;2023-03-23T05:47:27;7.63;;;5.88;;
69736;SDS011;64476;55.004;73.342;2023-03-23T05:51:08;6.07;;;5.47;;
69736;SDS011;64476;55.004;73.342;2023-03-23T05:54:19;6.43;;;5.30;;
69736;SDS011;64476;55.004;73.342;2023-03-23T05:57:23;8.93;;;6.45;;
69736;SDS011;64476;55.004;73.342;2023-03-23T06:00:35;20.38;;;8.00;;
69736;SDS011;64476;55.004;73.342;2023-03-23T06:03:48;16.30;;;7.93;;
69736;SDS011;64476;55.004;73.342;2023-03-23T06:12:16;6.93;;;5.50;;
69736;SDS011;64476;55.004;73.342;2023-03-23T06:20:08;14.95;;;5.90;;
69736;SDS011;64476;55.004;73.342;2023-03-23T06:39:25;9.70;;;5.65;;
69736;SDS011;64476;55.004;73.342;2023-03-23T06:47:19;10.60;;;6.68;;
69736;SDS011;64476;55.004;73.342;2023-03-23T06:50:25;9.63;;;6.10;;
69736;SDS011;64476;55.004;73.342;2023-03-23T06:53:38;9.02;;;6.10;;
69736;SDS011;64476;55.004;73.342;2023-03-23T07:10:43;8.60;;;6.40;;
69736;SDS011;64476;55.004;73.342;2023-03-23T07:13:46;9.77;;;7.22;;
69736;SDS011;64476;55.004;73.342;2023-03-23T07:16:49;10.93;;;6.95;;
69736;SDS011;64476;55.004;73.342;2023-03-23T07:19:56;9.70;;;5.90;;
69736;SDS011;64476;55.004;73.342;2023-03-23T07:22:58;8.01;;;5.79;;
69736;SDS011;64476;55.004;73.342;2023-03-23T07:26:25;14.35;;;5.88;;
69736;SDS011;64476;55.004;73.342;2023-03-23T07:29:33;11.37;;;6.20;;
69736;SDS011;64476;55.004;73.342;2023-03-23T07:32:56;9.37;;;5.30;;
69736;SDS011;64476;55.004;73.342;2023-03-23T07:35:59;14.35;;;6.03;;
69736;SDS011;64476;55.004;73.342;2023-03-23T07:39:04;8.00;;;6.20;;
69736;SDS011;64476;55.004;73.342;2023-03-23T07:45:24;10.05;;;5.75;;
69736;SDS011;64476;55.004;73.342;2023-03-23T07:49:00;8.00;;;5.10;;
69736;SDS011;64476;55.004;73.342;2023-03-23T07:56:53;11.45;;;5.38;;
69736;SDS011;64476;55.004;73.342;2023-03-23T08:04:20;6.22;;;4.85;;
69736;SDS011;64476;55.004;73.342;2023-03-23T08:07:40;7.53;;;4.88;;
69736;SDS011;64476;55.004;73.342;2023-03-23T08:15:29;3.92;;;3.47;;
69736;SDS011;64476;55.004;73.342;2023-03-23T08:23:06;7.35;;;6.20;;
69736;SDS011;64476;55.004;73.342;2023-03-23T08:26:43;4.80;;;3.20;;
69736;SDS011;64476;55.004;73.342;2023-03-23T08:39:27;5.63;;;2.65;;
69736;SDS011;64476;55.004;73.342;2023-03-23T08:42:53;4.88;;;2.62;;
69736;SDS011;64476;55.004;73.342;2023-03-23T08:54:39;6.20;;;2.50;;
69736;SDS011;64476;55.004;73.342;2023-03-23T09:02:27;3.60;;;2.88;;
69736;SDS011;64476;55.004;73.342;2023-03-23T09:06:22;3.92;;;2.05;;
69736;SDS011;64476;55.004;73.342;2023-03-23T09:09:23;4.97;;;4.53;;
69736;SDS011;64476;55.004;73.342;2023-03-23T09:20:51;3.00;;;2.60;;
69736;SDS011;64476;55.004;73.342;2023-03-23T09:24:00;11.50;;;8.75;;
69736;SDS011;64476;55.004;73.342;2023-03-23T09:55:51;2.75;;;1.70;;
69736;SDS011;64476;55.004;73.342;2023-03-23T10:03:16;10.43;;;1.70;;
69736;SDS011;64476;55.004;73.342;2023-03-23T10:22:09;2.85;;;2.03;;
69736;SDS011;64476;55.004;73.342;2023-03-23T10:54:57;4.43;;;1.95;;
69736;SDS011;64476;55.004;73.342;2023-03-23T11:02:15;3.28;;;1.85;;
69736;SDS011;64476;55.004;73.342;2023-03-23T11:09:52;1.40;;;1.40;;
69736;SDS011;64476;55.004;73.342;2023-03-23T11:17:21;17.40;;;5.90;;
69736;SDS011;64476;55.004;73.342;2023-03-23T11:21:03;8.07;;;5.90;;
69736;SDS011;64476;55.004;73.342;2023-03-23T11:32:31;4.65;;;3.78;;
69736;SDS011;64476;55.004;73.342;2023-03-23T11:43:57;5.53;;;1.88;;
69736;SDS011;64476;55.004;73.342;2023-03-23T12:00:28;12.73;;;4.50;;
69736;SDS011;64476;55.004;73.342;2023-03-23T12:12:38;3.03;;;2.33;;
69736;SDS011;64476;55.004;73.342;2023-03-23T12:15:44;5.25;;;3.80;;
69736;SDS011;64476;55.004;73.342;2023-03-23T12:27:01;24.42;;;9.75;;
69736;SDS011;64476;55.004;73.342;2023-03-23T12:33:45;6.03;;;4.10;;
69736;SDS011;64476;55.004;73.342;2023-03-23T12:44:00;2.47;;;2.28;;
69736;SDS011;64476;55.004;73.342;2023-03-23T12:47:21;5.57;;;2.67;;
69736;SDS011;64476;55.004;73.342;2023-03-23T12:51:06;9.52;;;3.05;;
69736;SDS011;64476;55.004;73.342;2023-03-23T12:54:42;3.67;;;2.85;;
69736;SDS011;64476;55.004;73.342;2023-03-23T12:57:57;10.95;;;3.47;;
69736;SDS011;64476;55.004;73.342;2023-03-23T13:04:14;5.68;;;4.28;;
69736;SDS011;64476;55.004;73.342;2023-03-23T13:07:23;7.60;;;3.38;;
69736;SDS011;64476;55.004;73.342;2023-03-23T13:10:32;5.40;;;3.03;;
69736;SDS011;64476;55.004;73.342;2023-03-23T13:23:55;2.92;;;2.63;;
69736;SDS011;64476;55.004;73.342;2023-03-23T13:27:00;4.50;;;2.95;;
69736;SDS011;64476;55.004;73.342;2023-03-23T13:30:02;5.10;;;3.58;;
69736;SDS011;64476;55.004;73.342;2023-03-23T13:33:05;6.78;;;5.45;;
69736;SDS011;64476;55.004;73.342;2023-03-23T13:36:28;15.45;;;4.38;;
69736;SDS011;64476;55.004;73.342;2023-03-23T13:54:44;5.20;;;2.92;;
69736;SDS011;64476;55.004;73.342;2023-03-23T14:04:51;5.15;;;3.55;;
69736;SDS011;64476;55.004;73.342;2023-03-23T14:10:59;12.77;;;5.05;;
69736;SDS011;64476;55.004;73.342;2023-03-23T14:17:53;9.47;;;5.50;;
69736;SDS011;64476;55.004;73.342;2023-03-23T14:21:37;11.32;;;5.18;;
69736;SDS011;64476;55.004;73.342;2023-03-23T14:24:47;10.57;;;5.00;;
69736;SDS011;64476;55.004;73.342;2023-03-23T14:27:53;7.40;;;5.10;;
69736;SDS011;64476;55.004;73.342;2023-03-23T14:30:55;11.90;;;5.03;;
69736;SDS011;64476;55.004;73.342;2023-03-23T14:34:01;7.97;;;5.43;;
69736;SDS011;64476;55.004;73.342;2023-03-23T14:37:09;7.07;;;4.90;;
69736;SDS011;64476;55.004;73.342;2023-03-23T14:40:15;8.55;;;5.72;;
69736;SDS011;64476;55.004;73.342;2023-03-23T14:43:19;13.10;;;6.05;;
69736;SDS011;64476;55.004;73.342;2023-03-23T14:46:25;15.27;;;5.95;;
69736;SDS011;64476;55.004;73.342;2023-03-23T14:56:35;12.65;;;6.88;;
69736;SDS011;64476;55.004;73.342;2023-03-23T14:59:40;13.52;;;7.78;;
69736;SDS011;64476;55.004;73.342;2023-03-23T15:02:44;8.65;;;6.78;;
69736;SDS011;64476;55.004;73.342;2023-03-23T15:05:51;14.63;;;6.90;;
69736;SDS011;64476;55.004;73.342;2023-03-23T15:08:56;11.35;;;5.95;;
69736;SDS011;64476;55.004;73.342;2023-03-23T15:12:34;23.70;;;6.82;;
69736;SDS011;64476;55.004;73.342;2023-03-23T15:16:12;10.38;;;6.13;;
69736;SDS011;64476;55.004;73.342;2023-03-23T15:19:50;14.48;;;8.07;;
69736;SDS011;64476;55.004;73.342;2023-03-23T15:22:53;13.20;;;8.20;;
69736;SDS011;64476;55.004;73.342;2023-03-23T15:25:56;15.30;;;7.75;;
69736;SDS011;64476;55.004;73.342;2023-03-23T15:32:54;12.05;;;6.61;;
69736;SDS011;64476;55.004;73.342;2023-03-23T15:36:05;10.60;;;6.15;;
69736;SDS011;64476;55.004;73.342;2023-03-23T15:39:11;12.70;;;6.88;;
69736;SDS011;64476;55.004;73.342;2023-03-23T15:42:24;17.35;;;5.75;;
69736;SDS011;64476;55.004;73.342;2023-03-23T15:45:34;9.98;;;6.88;;
69736;SDS011;64476;55.004;73.342;2023-03-23T15:48:46;12.35;;;6.70;;
69736;SDS011;64476;55.004;73.342;2023-03-23T15:51:57;12.40;;;7.68;;
69736;SDS011;64476;55.004;73.342;2023-03-23T15:55:43;18.83;;;7.18;;
69736;SDS011;64476;55.004;73.342;2023-03-23T15:58:45;12.97;;;6.90;;
69736;SDS011;64476;55.004;73.342;2023-03-23T16:01:47;6.53;;;5.38;;
69736;SDS011;64476;55.004;73.342;2023-03-23T16:04:49;9.23;;;5.65;;
69736;SDS011;64476;55.004;73.342;2023-03-23T16:08:02;9.27;;;5.60;;
69736;SDS011;64476;55.004;73.342;2023-03-23T16:11:04;8.32;;;4.50;;
69736;SDS011;64476;55.004;73.342;2023-03-23T16:14:06;7.93;;;5.18;;
69736;SDS011;64476;55.004;73.342;2023-03-23T16:17:09;5.82;;;4.93;;
69736;SDS011;64476;55.004;73.342;2023-03-23T16:20:47;7.43;;;4.72;;
69736;SDS011;64476;55.004;73.342;2023-03-23T16:24:27;15.10;;;10.90;;
69736;SDS011;64476;55.004;73.342;2023-03-23T16:28:01;14.00;;;7.87;;
69736;SDS011;64476;55.004;73.342;2023-03-23T16:31:03;5.80;;;5.18;;
69736;SDS011;64476;55.004;73.342;2023-03-23T16:34:05;7.43;;;5.22;;
69736;SDS011;64476;55.004;73.342;2023-03-23T16:37:12;9.77;;;5.85;;
69736;SDS011;64476;55.004;73.342;2023-03-23T16:40:16;13.85;;;8.18;;
69736;SDS011;64476;55.004;73.342;2023-03-23T16:43:19;8.57;;;6.28;;
69736;SDS011;64476;55.004;73.342;2023-03-23T16:46:21;8.85;;;6.95;;
69736;SDS011;64476;55.004;73.342;2023-03-23T16:49:23;9.77;;;6.63;;
69736;SDS011;64476;55.004;73.342;2023-03-23T16:52:26;29.98;;;10.20;;
69736;SDS011;64476;55.004;73.342;2023-03-23T16:55:28;17.50;;;10.68;;
69736;SDS011;64476;55.004;73.342;2023-03-23T16:58:31;30.65;;;14.65;;
69736;SDS011;64476;55.004;73.342;2023-03-23T17:01:32;33.40;;;16.02;;
69736;SDS011;64476;55.004;73.342;2023-03-23T17:04:34;42.42;;;17.90;;
69736;SDS011;64476;55.004;73.342;2023-03-23T17:11:15;34.50;;;18.30;;
69736;SDS011;64476;55.004;73.342;2023-03-23T17:14:17;37.40;;;16.73;;
69736;SDS011;64476;55.004;73.342;2023-03-23T17:17:19;30.73;;;15.15;;
69736;SDS011;64476;55.004;73.342;2023-03-23T17:20:21;24.60;;;14.63;;
69736;SDS011;64476;55.004;73.342;2023-03-23T17:23:23;25.45;;;12.43;;
69736;SDS011;64476;55.004;73.342;2023-03-23T17:26:34;27.10;;;11.25;;
69736;SDS011;64476;55.004;73.342;2023-03-23T17:29:40;21.20;;;11.00;;
69736;SDS011;64476;55.004;73.342;2023-03-23T17:32:53;24.00;;;12.05;;
69736;SDS011;64476;55.004;73.342;2023-03-23T17:35:55;18.75;;;11.27;;
69736;SDS011;64476;55.004;73.342;2023-03-23T17:38:57;17.40;;;11.47;;
69736;SDS011;64476;55.004;73.342;2023-03-23T17:41:59;17.27;;;11.50;;
69736;SDS011;64476;55.004;73.342;2023-03-23T17:45:02;21.70;;;11.17;;
69736;SDS011;64476;55.004;73.342;2023-03-23T17:48:05;18.33;;;11.63;;
69736;SDS011;64476;55.004;73.342;2023-03-23T17:51:07;22.10;;;9.95;;
69736;SDS011;64476;55.004;73.342;2023-03-23T17:54:09;19.45;;;11.27;;
69736;SDS011;64476;55.004;73.342;2023-03-23T17:57:15;17.30;;;11.32;;
69736;SDS011;64476;55.004;73.342;2023-03-23T18:00:17;19.55;;;11.27;;
69736;SDS011;64476;55.004;73.342;2023-03-23T18:03:29;13.77;;;10.18;;
69736;SDS011;64476;55.004;73.342;2023-03-23T18:06:31;16.05;;;10.60;;
69736;SDS011;64476;55.004;73.342;2023-03-23T18:09:34;15.77;;;10.50;;
69736;SDS011;64476;55.004;73.342;2023-03-23T18:12:36;16.65;;;10.27;;
69736;SDS011;64476;55.004;73.342;2023-03-23T18:15:41;13.00;;;9.52;;
69736;SDS011;64476;55.004;73.342;2023-03-23T18:18:44;16.15;;;10.65;;
69736;SDS011;64476;55.004;73.342;2023-03-23T18:22:00;16.40;;;9.63;;
69736;SDS011;64476;55.004;73.342;2023-03-23T18:25:12;22.40;;;9.75;;
69736;SDS011;64476;55.004;73.342;2023-03-23T18:28:19;12.60;;;8.60;;
69736;SDS011;64476;55.004;73.342;2023-03-23T18:31:28;12.83;;;9.07;;
69736;SDS011;64476;55.004;73.342;2023-03-23T18:34:29;18.20;;;8.67;;
69736;SDS011;64476;55.004;73.342;2023-03-23T18:37:37;12.52;;;8.98;;
69736;SDS011;64476;55.004;73.342;2023-03-23T18:44:14;14.77;;;9.55;;
69736;SDS011;64476;55.004;73.342;2023-03-23T18:47:16;13.32;;;8.43;;
69736;SDS011;64476;55.004;73.342;2023-03-23T18:50:18;14.00;;;7.90;;
69736;SDS011;64476;55.004;73.342;2023-03-23T18:53:53;17.88;;;8.77;;
69736;SDS011;64476;55.004;73.342;2023-03-23T18:56:55;13.70;;;8.25;;
69736;SDS011;64476;55.004;73.342;2023-03-23T19:00:01;24.23;;;8.90;;
69736;SDS011;64476;55.004;73.342;2023-03-23T19:03:04;15.52;;;8.95;;
69736;SDS011;64476;55.004;73.342;2023-03-23T19:06:16;13.05;;;8.60;;
69736;SDS011;64476;55.004;73.342;2023-03-23T19:09:20;15.15;;;8.57;;
69736;SDS011;64476;55.004;73.342;2023-03-23T19:12:22;16.52;;;8.93;;
69736;SDS011;64476;55.004;73.342;2023-03-23T19:15:23;14.32;;;9.40;;
69736;SDS011;64476;55.004;73.342;2023-03-23T19:18:35;13.17;;;8.70;;
69736;SDS011;64476;55.004;73.342;2023-03-23T19:21:37;15.20;;;8.73;;
69736;SDS011;64476;55.004;73.342;2023-03-23T19:24:40;13.20;;;8.52;;
69736;SDS011;64476;55.004;73.342;2023-03-23T19:27:42;21.98;;;13.20;;
69736;SDS011;64476;55.004;73.342;2023-03-23T19:30:44;18.02;;;10.25;;
69736;SDS011;64476;55.004;73.342;2023-03-23T19:33:52;15.35;;;10.10;;
69736;SDS011;64476;55.004;73.342;2023-03-23T19:37:03;23.70;;;10.85;;
69736;SDS011;64476;55.004;73.342;2023-03-23T19:40:05;15.23;;;10.30;;
69736;SDS011;64476;55.004;73.342;2023-03-23T19:43:07;18.17;;;11.23;;
69736;SDS011;64476;55.004;73.342;2023-03-23T19:46:09;22.17;;;12.20;;
69736;SDS011;64476;55.004;73.342;2023-03-23T19:49:12;22.33;;;11.68;;
69736;SDS011;64476;55.004;73.342;2023-03-23T19:52:14;19.17;;;11.52;;
69736;SDS011;64476;55.004;73.342;2023-03-23T19:55:15;20.52;;;11.50;;
69736;SDS011;64476;55.004;73.342;2023-03-23T19:58:27;16.20;;;10.38;;
69736;SDS011;64476;55.004;73.342;2023-03-23T20:02:08;17.52;;;10.73;;
69736;SDS011;64476;55.004;73.342;2023-03-23T20:05:46;13.85;;;9.77;;
69736;SDS011;64476;55.004;73.342;2023-03-23T20:08:47;12.57;;;8.13;;
69736;SDS011;64476;55.004;73.342;2023-03-23T20:11:54;14.45;;;9.68;;
69736;SDS011;64476;55.004;73.342;2023-03-23T20:14:55;13.10;;;9.25;;
69736;SDS011;64476;55.004;73.342;2023-03-23T20:17:58;11.30;;;8.20;;
69736;SDS011;64476;55.004;73.342;2023-03-23T20:24:06;10.73;;;7.80;;
69736;SDS011;64476;55.004;73.342;2023-03-23T20:27:08;10.32;;;7.07;;
69736;SDS011;64476;55.004;73.342;2023-03-23T20:30:14;8.68;;;6.38;;
69736;SDS011;64476;55.004;73.342;2023-03-23T20:33:18;9.70;;;7.05;;
69736;SDS011;64476;55.004;73.342;2023-03-23T20:36:20;9.13;;;7.45;;
69736;SDS011;64476;55.004;73.342;2023-03-23T20:39:23;10.00;;;6.95;;
69736;SDS011;64476;55.004;73.342;2023-03-23T20:42:26;8.20;;;6.47;;
69736;SDS011;64476;55.004;73.342;2023-03-23T20:45:29;11.63;;;7.03;;
69736;SDS011;64476;55.004;73.342;2023-03-23T20:52:06;10.75;;;7.07;;
69736;SDS011;64476;55.004;73.342;2023-03-23T20:55:46;13.75;;;6.90;;
69736;SDS011;64476;55.004;73.342;2023-03-23T20:58:47;10.38;;;7.07;;
69736;SDS011;64476;55.004;73.342;2023-03-23T21:01:49;9.68;;;7.07;;
69736;SDS011;64476;55.004;73.342;2023-03-23T21:04:51;13.77;;;7.45;;
69736;SDS011;64476;55.004;73.342;2023-03-23T21:07:53;13.68;;;8.30;;
69736;SDS011;64476;55.004;73.342;2023-03-23T21:11:06;13.13;;;8.88;;
69736;SDS011;64476;55.004;73.342;2023-03-23T21:14:19;15.18;;;8.23;;
69736;SDS011;64476;55.004;73.342;2023-03-23T21:17:21;14.32;;;8.80;;
69736;SDS011;64476;55.004;73.342;2023-03-23T21:20:23;13.10;;;9.02;;
69736;SDS011;64476;55.004;73.342;2023-03-23T21:23:30;13.80;;;8.90;;
69736;SDS011;64476;55.004;73.342;2023-03-23T21:27:12;17.02;;;8.23;;
69736;SDS011;64476;55.004;73.342;2023-03-23T21:30:14;14.27;;;9.02;;
69736;SDS011;64476;55.004;73.342;2023-03-23T21:33:15;12.65;;;8.25;;
69736;SDS011;64476;55.004;73.342;2023-03-23T21:36:17;13.20;;;8.20;;
69736;SDS011;64476;55.004;73.342;2023-03-23T21:39:18;17.80;;;9.23;;
69736;SDS011;64476;55.004;73.342;2023-03-23T21:42:21;13.43;;;9.23;;
69736;SDS011;64476;55.004;73.342;2023-03-23T21:45:30;14.48;;;8.15;;
69736;SDS011;64476;55.004;73.342;2023-03-23T21:48:31;12.40;;;8.60;;
69736;SDS011;64476;55.004;73.342;2023-03-23T21:51:33;12.73;;;8.35;;
69736;SDS011;64476;55.004;73.342;2023-03-23T21:54:34;14.38;;;8.60;;
69736;SDS011;64476;55.004;73.342;2023-03-23T21:57:36;12.60;;;8.60;;
69736;SDS011;64476;55.004;73.342;2023-03-23T22:00:39;16.27;;;8.60;;
69736;SDS011;64476;55.004;73.342;2023-03-23T22:04:18;12.77;;;7.85;;
69736;SDS011;64476;55.004;73.342;2023-03-23T22:07:20;13.20;;;8.70;;
69736;SDS011;64476;55.004;73.342;2023-03-23T22:10:24;15.55;;;8.13;;
69736;SDS011;64476;55.004;73.342;2023-03-23T22:13:27;11.55;;;7.93;;
69736;SDS011;64476;55.004;73.342;2023-03-23T22:16:29;12.27;;;8.55;;
69736;SDS011;64476;55.004;73.342;2023-03-23T22:19:38;14.27;;;8.88;;
69736;SDS011;64476;55.004;73.342;2023-03-23T22:22:41;8.45;;;7.10;;
69736;SDS011;64476;55.004;73.342;2023-03-23T22:25:42;7.57;;;6.38;;
69736;SDS011;64476;55.004;73.342;2023-03-23T22:28:44;6.47;;;5.30;;
69736;SDS011;64476;55.004;73.342;2023-03-23T22:31:47;13.18;;;6.68;;
69736;SDS011;64476;55.004;73.342;2023-03-23T22:34:49;7.45;;;5.78;;
69736;SDS011;64476;55.004;73.342;2023-03-23T22:37:53;9.63;;;5.55;;
69736;SDS011;64476;55.004;73.342;2023-03-23T22:40:56;8.70;;;6.18;;
69736;SDS011;64476;55.004;73.342;2023-03-23T22:44:09;11.40;;;6.22;;
69736;SDS011;64476;55.004;73.342;2023-03-23T22:47:12;10.27;;;6.90;;
69736;SDS011;64476;55.004;73.342;2023-03-23T22:50:14;9.55;;;6.20;;
69736;SDS011;64476;55.004;73.342;2023-03-23T22:53:16;7.40;;;5.83;;
69736;SDS011;64476;55.004;73.342;2023-03-23T22:56:24;9.40;;;6.10;;
69736;SDS011;64476;55.004;73.342;2023-03-23T22:59:25;7.13;;;5.63;;
69736;SDS011;64476;55.004;73.342;2023-03-23T23:02:27;12.68;;;7.75;;
69736;SDS011;64476;55.004;73.342;2023-03-23T23:05:29;10.32;;;7.60;;
69736;SDS011;64476;55.004;73.342;2023-03-23T23:08:31;16.33;;;9.40;;
69736;SDS011;64476;55.004;73.342;2023-03-23T23:11:38;19.05;;;12.55;;
69736;SDS011;64476;55.004;73.342;2023-03-23T23:14:44;16.48;;;11.43;;
69736;SDS011;64476;55.004;73.342;2023-03-23T23:17:56;22.95;;;11.63;;
69736;SDS011;64476;55.004;73.342;2023-03-23T23:20:58;26.92;;;13.02;;
69736;SDS011;64476;55.004;73.342;2023-03-23T23:24:01;19.42;;;12.52;;
69736;SDS011;64476;55.004;73.342;2023-03-23T23:27:07;19.08;;;12.38;;
69736;SDS011;64476;55.004;73.342;2023-03-23T23:30:09;19.85;;;11.77;;
69736;SDS011;64476;55.004;73.342;2023-03-23T23:33:11;21.98;;;12.15;;
69736;SDS011;64476;55.004;73.342;2023-03-23T23:36:14;17.83;;;11.57;;
69736;SDS011;64476;55.004;73.342;2023-03-23T23:39:21;20.95;;;12.20;;
69736;SDS011;64476;55.004;73.342;2023-03-23T23:42:22;24.67;;;11.73;;
69736;SDS011;64476;55.004;73.342;2023-03-23T23:45:24;18.30;;;11.77;;
69736;SDS011;64476;55.004;73.342;2023-03-23T23:48:36;24.20;;;12.07;;
69736;SDS011;64476;55.004;73.342;2023-03-23T23:51:46;19.45;;;12.43;;
69736;SDS011;64476;55.004;73.342;2023-03-23T23:54:58;24.48;;;14.32;;
69736;SDS011;64476;55.004;73.342;2023-03-23T23:58:00;25.07;;;15.30;;
